Accord, New York
Current Conditions -  °F | °C
As of 3:54 PM on Thursday 18 Dec 2014 (Local Time) from KMGJ Reporting Station
Overcast Overcast  
Wind Chill: 29°   Ceiling: 3000
Heat Index: 37°   Visibility: 10mi
Dew Point: 26°   Wind: 12mph
Humidity: 65%   Direction: 310°NW
Pressure: 29.95"   Gusts: 20mph
Location:  41.79°N, 74.23°W
Report Text: KMGJ 182054Z AUTO 31010G17KT 10SM OVC030 03/M03 A2995 RMK AO2 SLP145 T00281033 53013 TSNO
Loading
Personal Weather Stations






























Interactive Weather Map New forecast layout! Learn more

10-Day Weather Forecast

Advertisements
Track Severe Weather on mobile